sensor_id;sensor_type;location;lat;lon;timestamp;pressure;altitude;pressure_sealevel;temperature;humidity
3464;BME280;3551;41.578;24.706;2023-12-20T00:01:16;91543.97;;;0.90;100.00
3464;BME280;3551;41.578;24.706;2023-12-20T00:03:43;91578.13;;;0.98;100.00
3464;BME280;3551;41.578;24.706;2023-12-20T00:06:10;91554.56;;;1.02;100.00
3464;BME280;3551;41.578;24.706;2023-12-20T00:08:37;91576.13;;;0.95;100.00
3464;BME280;3551;41.578;24.706;2023-12-20T00:11:04;91557.44;;;0.88;100.00
3464;BME280;3551;41.578;24.706;2023-12-20T00:13:31;91548.91;;;0.91;100.00
3464;BME280;3551;41.578;24.706;2023-12-20T00:15:59;91547.69;;;0.89;100.00
3464;BME280;3551;41.578;24.706;2023-12-20T00:18:26;91554.50;;;0.90;100.00
3464;BME280;3551;41.578;24.706;2023-12-20T00:20:53;91562.28;;;0.86;100.00
3464;BME280;3551;41.578;24.706;2023-12-20T00:23:19;91533.59;;;0.73;100.00
3464;BME280;3551;41.578;24.706;2023-12-20T00:25:48;91543.47;;;0.76;100.00
3464;BME280;3551;41.578;24.706;2023-12-20T00:28:15;91525.81;;;0.76;100.00
3464;BME280;3551;41.578;24.706;2023-12-20T00:30:42;91541.56;;;0.97;100.00
3464;BME280;3551;41.578;24.706;2023-12-20T00:33:10;91539.34;;;0.87;100.00
3464;BME280;3551;41.578;24.706;2023-12-20T00:35:38;91518.38;;;0.78;100.00
3464;BME280;3551;41.578;24.706;2023-12-20T00:38:04;91526.50;;;0.85;100.00
3464;BME280;3551;41.578;24.706;2023-12-20T00:40:32;91547.47;;;0.94;100.00
3464;BME280;3551;41.578;24.706;2023-12-20T00:42:59;91538.84;;;0.93;100.00
3464;BME280;3551;41.578;24.706;2023-12-20T00:45:26;91528.94;;;0.90;100.00
3464;BME280;3551;41.578;24.706;2023-12-20T00:47:53;91519.78;;;0.76;100.00
3464;BME280;3551;41.578;24.706;2023-12-20T00:50:22;91515.31;;;0.88;100.00
3464;BME280;3551;41.578;24.706;2023-12-20T00:52:48;91503.59;;;0.86;100.00
3464;BME280;3551;41.578;24.706;2023-12-20T00:55:15;91515.16;;;0.93;100.00
3464;BME280;3551;41.578;24.706;2023-12-20T00:57:42;91522.78;;;0.86;100.00
3464;BME280;3551;41.578;24.706;2023-12-20T01:00:10;91502.03;;;0.85;100.00
3464;BME280;3551;41.578;24.706;2023-12-20T01:02:38;91511.19;;;0.87;100.00
3464;BME280;3551;41.578;24.706;2023-12-20T01:05:05;91520.03;;;0.83;100.00
3464;BME280;3551;41.578;24.706;2023-12-20T01:07:34;91496.19;;;0.67;100.00
3464;BME280;3551;41.578;24.706;2023-12-20T01:10:01;91518.13;;;0.71;100.00
3464;BME280;3551;41.578;24.706;2023-12-20T01:12:28;91492.38;;;0.77;100.00
3464;BME280;3551;41.578;24.706;2023-12-20T01:14:54;91511.56;;;0.77;100.00
3464;BME280;3551;41.578;24.706;2023-12-20T01:17:21;91481.72;;;0.73;100.00
3464;BME280;3551;41.578;24.706;2023-12-20T01:19:48;91499.25;;;0.69;100.00
3464;BME280;3551;41.578;24.706;2023-12-20T01:22:15;91505.16;;;0.66;100.00
3464;BME280;3551;41.578;24.706;2023-12-20T01:24:43;91476.22;;;0.66;100.00
3464;BME280;3551;41.578;24.706;2023-12-20T01:27:10;91479.41;;;0.72;100.00
3464;BME280;3551;41.578;24.706;2023-12-20T01:29:37;91494.91;;;0.85;100.00
3464;BME280;3551;41.578;24.706;2023-12-20T01:32:05;91483.13;;;0.71;100.00
3464;BME280;3551;41.578;24.706;2023-12-20T01:34:33;91478.41;;;0.64;100.00
3464;BME280;3551;41.578;24.706;2023-12-20T01:37:00;91475.25;;;0.50;100.00
3464;BME280;3551;41.578;24.706;2023-12-20T01:39:27;91500.41;;;0.60;100.00
3464;BME280;3551;41.578;24.706;2023-12-20T01:41:55;91452.81;;;0.52;100.00
3464;BME280;3551;41.578;24.706;2023-12-20T01:44:22;91469.25;;;0.49;100.00
3464;BME280;3551;41.578;24.706;2023-12-20T01:46:49;91463.13;;;0.57;100.00
3464;BME280;3551;41.578;24.706;2023-12-20T01:49:16;91468.19;;;0.63;100.00
3464;BME280;3551;41.578;24.706;2023-12-20T01:51:43;91459.66;;;0.66;100.00
3464;BME280;3551;41.578;24.706;2023-12-20T01:54:10;91448.81;;;0.67;100.00
3464;BME280;3551;41.578;24.706;2023-12-20T01:56:38;91453.63;;;0.65;100.00
3464;BME280;3551;41.578;24.706;2023-12-20T01:59:07;91445.09;;;0.47;100.00
3464;BME280;3551;41.578;24.706;2023-12-20T02:01:35;91450.22;;;0.44;100.00
3464;BME280;3551;41.578;24.706;2023-12-20T02:04:02;91448.19;;;0.49;100.00
3464;BME280;3551;41.578;24.706;2023-12-20T02:06:30;91442.94;;;0.49;100.00
3464;BME280;3551;41.578;24.706;2023-12-20T02:08:57;91420.91;;;0.54;100.00
3464;BME280;3551;41.578;24.706;2023-12-20T02:11:25;91438.13;;;0.51;100.00
3464;BME280;3551;41.578;24.706;2023-12-20T02:13:52;91440.66;;;0.60;100.00
3464;BME280;3551;41.578;24.706;2023-12-20T02:16:21;91410.81;;;0.56;100.00
3464;BME280;3551;41.578;24.706;2023-12-20T02:18:48;91445.66;;;0.53;100.00
3464;BME280;3551;41.578;24.706;2023-12-20T02:21:15;91434.16;;;0.45;100.00
3464;BME280;3551;41.578;24.706;2023-12-20T02:23:43;91432.69;;;0.36;100.00
3464;BME280;3551;41.578;24.706;2023-12-20T02:26:10;91404.78;;;0.43;100.00
3464;BME280;3551;41.578;24.706;2023-12-20T02:28:39;91403.09;;;0.39;100.00
3464;BME280;3551;41.578;24.706;2023-12-20T02:31:06;91410.38;;;0.54;100.00
3464;BME280;3551;41.578;24.706;2023-12-20T02:33:33;91401.19;;;0.27;100.00
3464;BME280;3551;41.578;24.706;2023-12-20T02:36:00;91400.47;;;0.39;100.00
3464;BME280;3551;41.578;24.706;2023-12-20T02:38:27;91404.50;;;0.36;100.00
3464;BME280;3551;41.578;24.706;2023-12-20T02:40:55;91400.16;;;0.40;100.00
3464;BME280;3551;41.578;24.706;2023-12-20T02:43:22;91388.59;;;0.33;100.00
3464;BME280;3551;41.578;24.706;2023-12-20T02:45:49;91393.47;;;0.43;100.00
3464;BME280;3551;41.578;24.706;2023-12-20T02:48:16;91393.00;;;0.41;100.00
3464;BME280;3551;41.578;24.706;2023-12-20T02:50:42;91391.63;;;0.43;100.00
3464;BME280;3551;41.578;24.706;2023-12-20T02:53:09;91391.06;;;0.50;100.00
3464;BME280;3551;41.578;24.706;2023-12-20T02:55:36;91392.66;;;0.30;100.00
3464;BME280;3551;41.578;24.706;2023-12-20T02:58:04;91373.59;;;0.33;100.00
3464;BME280;3551;41.578;24.706;2023-12-20T03:00:31;91381.66;;;0.16;100.00
3464;BME280;3551;41.578;24.706;2023-12-20T03:02:58;91381.22;;;0.14;100.00
3464;BME280;3551;41.578;24.706;2023-12-20T03:05:25;91382.44;;;0.17;100.00
3464;BME280;3551;41.578;24.706;2023-12-20T03:07:52;91382.25;;;0.34;100.00
3464;BME280;3551;41.578;24.706;2023-12-20T03:10:19;91378.09;;;0.33;100.00
3464;BME280;3551;41.578;24.706;2023-12-20T03:12:46;91371.78;;;0.13;100.00
3464;BME280;3551;41.578;24.706;2023-12-20T03:15:14;91391.38;;;0.16;100.00
3464;BME280;3551;41.578;24.706;2023-12-20T03:17:41;91381.94;;;0.35;100.00
3464;BME280;3551;41.578;24.706;2023-12-20T03:20:09;91372.59;;;0.26;100.00
3464;BME280;3551;41.578;24.706;2023-12-20T03:22:35;91353.19;;;-0.03;100.00
3464;BME280;3551;41.578;24.706;2023-12-20T03:25:02;91374.28;;;-0.11;100.00
3464;BME280;3551;41.578;24.706;2023-12-20T03:27:28;91371.22;;;0.08;100.00
3464;BME280;3551;41.578;24.706;2023-12-20T03:29:55;91361.06;;;0.18;100.00
3464;BME280;3551;41.578;24.706;2023-12-20T03:32:23;91373.88;;;0.20;100.00
3464;BME280;3551;41.578;24.706;2023-12-20T03:34:50;91360.31;;;0.30;100.00
3464;BME280;3551;41.578;24.706;2023-12-20T03:37:17;91356.81;;;0.26;100.00
3464;BME280;3551;41.578;24.706;2023-12-20T03:39:44;91353.28;;;0.22;100.00
3464;BME280;3551;41.578;24.706;2023-12-20T03:42:11;91361.09;;;0.30;100.00
3464;BME280;3551;41.578;24.706;2023-12-20T03:44:38;91352.56;;;0.33;100.00
3464;BME280;3551;41.578;24.706;2023-12-20T03:47:05;91363.28;;;0.28;100.00
3464;BME280;3551;41.578;24.706;2023-12-20T03:49:33;91337.22;;;0.23;100.00
3464;BME280;3551;41.578;24.706;2023-12-20T03:52:02;91343.47;;;0.31;100.00
3464;BME280;3551;41.578;24.706;2023-12-20T03:54:29;91363.59;;;0.27;100.00
3464;BME280;3551;41.578;24.706;2023-12-20T03:56:56;91366.16;;;0.35;100.00
3464;BME280;3551;41.578;24.706;2023-12-20T03:59:23;91370.53;;;0.31;100.00
3464;BME280;3551;41.578;24.706;2023-12-20T04:01:50;91335.78;;;0.26;100.00
3464;BME280;3551;41.578;24.706;2023-12-20T04:04:17;91358.78;;;-0.04;100.00
3464;BME280;3551;41.578;24.706;2023-12-20T04:06:45;91345.88;;;0.03;100.00
3464;BME280;3551;41.578;24.706;2023-12-20T04:09:12;91345.34;;;0.10;100.00
3464;BME280;3551;41.578;24.706;2023-12-20T04:11:39;91364.78;;;0.17;100.00
3464;BME280;3551;41.578;24.706;2023-12-20T04:14:06;91328.94;;;0.13;100.00
3464;BME280;3551;41.578;24.706;2023-12-20T04:16:34;91322.13;;;-0.01;100.00
3464;BME280;3551;41.578;24.706;2023-12-20T04:19:01;91337.25;;;0.15;100.00
3464;BME280;3551;41.578;24.706;2023-12-20T04:21:28;91330.28;;;0.19;100.00
3464;BME280;3551;41.578;24.706;2023-12-20T04:23:56;91319.59;;;0.03;100.00
3464;BME280;3551;41.578;24.706;2023-12-20T04:26:23;91321.25;;;0.08;100.00
3464;BME280;3551;41.578;24.706;2023-12-20T04:28:50;91320.84;;;0.18;100.00
3464;BME280;3551;41.578;24.706;2023-12-20T04:31:17;91322.59;;;0.14;100.00
3464;BME280;3551;41.578;24.706;2023-12-20T04:33:44;91316.19;;;0.23;100.00
3464;BME280;3551;41.578;24.706;2023-12-20T04:36:11;91312.41;;;0.12;100.00
3464;BME280;3551;41.578;24.706;2023-12-20T04:38:38;91299.25;;;0.12;100.00
3464;BME280;3551;41.578;24.706;2023-12-20T04:41:06;91309.13;;;0.15;100.00
3464;BME280;3551;41.578;24.706;2023-12-20T04:43:33;91314.38;;;0.15;100.00
3464;BME280;3551;41.578;24.706;2023-12-20T04:46:00;91293.31;;;0.03;100.00
3464;BME280;3551;41.578;24.706;2023-12-20T04:48:26;91315.34;;;0.11;100.00
3464;BME280;3551;41.578;24.706;2023-12-20T04:50:53;91307.38;;;0.19;100.00
3464;BME280;3551;41.578;24.706;2023-12-20T04:53:20;91303.22;;;0.18;100.00
3464;BME280;3551;41.578;24.706;2023-12-20T04:55:47;91301.00;;;0.08;100.00
3464;BME280;3551;41.578;24.706;2023-12-20T04:58:15;91311.06;;;0.06;100.00
3464;BME280;3551;41.578;24.706;2023-12-20T05:00:42;91295.56;;;-0.08;100.00
3464;BME280;3551;41.578;24.706;2023-12-20T05:03:09;91295.56;;;-0.08;100.00
3464;BME280;3551;41.578;24.706;2023-12-20T05:05:36;91300.88;;;0.05;100.00
3464;BME280;3551;41.578;24.706;2023-12-20T05:08:04;91295.41;;;0.10;100.00
3464;BME280;3551;41.578;24.706;2023-12-20T05:10:30;91279.72;;;0.01;100.00
3464;BME280;3551;41.578;24.706;2023-12-20T05:12:57;91288.16;;;0.07;100.00
3464;BME280;3551;41.578;24.706;2023-12-20T05:15:26;91286.44;;;0.11;100.00
3464;BME280;3551;41.578;24.706;2023-12-20T05:17:52;91277.66;;;0.07;100.00
3464;BME280;3551;41.578;24.706;2023-12-20T05:20:19;91288.28;;;0.10;100.00
3464;BME280;3551;41.578;24.706;2023-12-20T05:22:46;91274.03;;;-0.01;100.00
3464;BME280;3551;41.578;24.706;2023-12-20T05:25:13;91284.53;;;-0.01;100.00
3464;BME280;3551;41.578;24.706;2023-12-20T05:27:40;91263.91;;;-0.11;100.00
3464;BME280;3551;41.578;24.706;2023-12-20T05:30:07;91298.63;;;-0.18;100.00
3464;BME280;3551;41.578;24.706;2023-12-20T05:32:36;91264.34;;;-0.21;100.00
3464;BME280;3551;41.578;24.706;2023-12-20T05:35:03;91272.34;;;-0.06;100.00
3464;BME280;3551;41.578;24.706;2023-12-20T05:37:30;91250.16;;;0.04;100.00
3464;BME280;3551;41.578;24.706;2023-12-20T05:39:57;91268.56;;;0.04;100.00
3464;BME280;3551;41.578;24.706;2023-12-20T05:42:24;91284.13;;;0.09;100.00
3464;BME280;3551;41.578;24.706;2023-12-20T05:44:51;91266.53;;;0.22;100.00
3464;BME280;3551;41.578;24.706;2023-12-20T05:47:17;91280.63;;;0.05;100.00
3464;BME280;3551;41.578;24.706;2023-12-20T05:49:46;91284.13;;;0.09;100.00
3464;BME280;3551;41.578;24.706;2023-12-20T05:52:12;91266.75;;;0.17;100.00
3464;BME280;3551;41.578;24.706;2023-12-20T05:54:40;91277.25;;;0.17;100.00
3464;BME280;3551;41.578;24.706;2023-12-20T05:57:07;91274.28;;;0.18;100.00
3464;BME280;3551;41.578;24.706;2023-12-20T05:59:34;91251.84;;;0.21;100.00
3464;BME280;3551;41.578;24.706;2023-12-20T06:02:02;91265.63;;;0.06;100.00
3464;BME280;3551;41.578;24.706;2023-12-20T06:04:29;91268.59;;;0.16;100.00
3464;BME280;3551;41.578;24.706;2023-12-20T06:06:58;91255.44;;;0.16;100.00
3464;BME280;3551;41.578;24.706;2023-12-20T06:09:26;91262.13;;;0.14;100.00
3464;BME280;3551;41.578;24.706;2023-12-20T06:11:54;91241.13;;;0.26;100.00
3464;BME280;3551;41.578;24.706;2023-12-20T06:14:21;91267.50;;;0.29;100.00
3464;BME280;3551;41.578;24.706;2023-12-20T09:44:08;90998.47;;;7.42;66.19
3464;BME280;3551;41.578;24.706;2023-12-20T09:46:49;90997.44;;;7.92;62.73
3464;BME280;3551;41.578;24.706;2023-12-20T09:49:17;91024.47;;;8.05;63.67
3464;BME280;3551;41.578;24.706;2023-12-20T09:51:46;91042.34;;;8.11;63.99
3464;BME280;3551;41.578;24.706;2023-12-20T09:54:16;91009.97;;;8.06;64.36
3464;BME280;3551;41.578;24.706;2023-12-20T09:56:43;91010.75;;;8.20;60.93
3464;BME280;3551;41.578;24.706;2023-12-20T09:59:12;91014.56;;;8.19;62.34
3464;BME280;3551;41.578;24.706;2023-12-20T10:01:40;90984.13;;;8.20;61.93
3464;BME280;3551;41.578;24.706;2023-12-20T10:04:12;90982.63;;;8.40;59.91
3464;BME280;3551;41.578;24.706;2023-12-20T10:06:40;90991.38;;;8.55;58.87
3464;BME280;3551;41.578;24.706;2023-12-20T10:09:07;90968.88;;;8.70;58.07
3464;BME280;3551;41.578;24.706;2023-12-20T10:11:39;90957.38;;;8.94;55.23
3464;BME280;3551;41.578;24.706;2023-12-20T10:14:07;90969.19;;;8.93;56.60
3464;BME280;3551;41.578;24.706;2023-12-20T10:16:40;90990.16;;;8.91;56.49
3464;BME280;3551;41.578;24.706;2023-12-20T10:19:07;90955.94;;;8.72;58.08
3464;BME280;3551;41.578;24.706;2023-12-20T10:21:41;90944.16;;;8.59;58.04
3464;BME280;3551;41.578;24.706;2023-12-20T10:24:17;90941.13;;;8.50;58.62
3464;BME280;3551;41.578;24.706;2023-12-20T10:26:45;90934.25;;;8.53;58.71
3464;BME280;3551;41.578;24.706;2023-12-20T10:29:12;90954.03;;;8.66;58.15
3464;BME280;3551;41.578;24.706;2023-12-20T10:31:40;90943.38;;;8.59;56.59
3464;BME280;3551;41.578;24.706;2023-12-20T10:34:21;90927.75;;;8.71;54.23
3464;BME280;3551;41.578;24.706;2023-12-20T10:36:48;90929.31;;;8.55;57.24
3464;BME280;3551;41.578;24.706;2023-12-20T10:39:18;90928.56;;;8.54;58.37
3464;BME280;3551;41.578;24.706;2023-12-20T10:41:47;90925.13;;;8.50;55.86
3464;BME280;3551;41.578;24.706;2023-12-20T10:44:16;90924.00;;;8.47;58.97
3464;BME280;3551;41.578;24.706;2023-12-20T10:46:45;90922.09;;;8.44;58.15
3464;BME280;3551;41.578;24.706;2023-12-20T10:49:22;90900.78;;;8.44;56.80
3464;BME280;3551;41.578;24.706;2023-12-20T10:51:50;90904.63;;;8.33;59.27
3464;BME280;3551;41.578;24.706;2023-12-20T10:54:19;90905.34;;;8.26;59.52
3464;BME280;3551;41.578;24.706;2023-12-20T10:56:46;90896.63;;;8.12;57.71
3464;BME280;3551;41.578;24.706;2023-12-20T10:59:17;90887.47;;;8.27;58.40
3464;BME280;3551;41.578;24.706;2023-12-20T11:01:50;90891.28;;;8.29;60.27
3464;BME280;3551;41.578;24.706;2023-12-20T11:04:21;90904.63;;;8.33;58.25
3464;BME280;3551;41.578;24.706;2023-12-20T11:06:54;90877.22;;;8.25;59.35
3464;BME280;3551;41.578;24.706;2023-12-20T11:09:25;90877.19;;;8.36;57.29
3464;BME280;3551;41.578;24.706;2023-12-20T11:12:02;90880.22;;;8.38;57.02
3464;BME280;3551;41.578;24.706;2023-12-20T11:14:36;90868.84;;;8.30;58.96
3464;BME280;3551;41.578;24.706;2023-12-20T11:17:08;90862.38;;;8.28;59.84
3464;BME280;3551;41.578;24.706;2023-12-20T11:20:03;90866.56;;;8.22;58.83
3464;BME280;3551;41.578;24.706;2023-12-20T11:22:31;90860.84;;;8.34;57.64
3464;BME280;3551;41.578;24.706;2023-12-20T11:25:03;90854.41;;;8.28;56.28
3464;BME280;3551;41.578;24.706;2023-12-20T11:27:30;90864.66;;;8.40;56.18
3464;BME280;3551;41.578;24.706;2023-12-20T11:29:58;90845.25;;;8.25;55.18
3464;BME280;3551;41.578;24.706;2023-12-20T11:32:36;90845.53;;;8.66;52.24
3464;BME280;3551;41.578;24.706;2023-12-20T11:35:17;90840.97;;;8.60;53.17
3464;BME280;3551;41.578;24.706;2023-12-20T11:37:46;90858.56;;;8.43;52.28
3464;BME280;3551;41.578;24.706;2023-12-20T11:40:15;90829.66;;;8.27;55.07
3464;BME280;3551;41.578;24.706;2023-12-20T11:42:44;90828.53;;;8.28;52.55
3464;BME280;3551;41.578;24.706;2023-12-20T11:45:13;90840.66;;;8.40;53.74
3464;BME280;3551;41.578;24.706;2023-12-20T11:47:45;90846.38;;;8.35;55.00
3464;BME280;3551;41.578;24.706;2023-12-20T11:50:14;90833.81;;;8.39;54.24
3464;BME280;3551;41.578;24.706;2023-12-20T11:52:40;90831.50;;;8.44;52.24
3464;BME280;3551;41.578;24.706;2023-12-20T11:55:08;90818.88;;;8.59;52.06
3464;BME280;3551;41.578;24.706;2023-12-20T11:57:37;90826.44;;;8.71;52.13
3464;BME280;3551;41.578;24.706;2023-12-20T12:00:06;90812.41;;;8.60;49.45
3464;BME280;3551;41.578;24.706;2023-12-20T12:02:34;90815.81;;;8.64;53.14
3464;BME280;3551;41.578;24.706;2023-12-20T12:05:02;90806.69;;;8.58;50.31
3464;BME280;3551;41.578;24.706;2023-12-20T12:07:30;90797.56;;;8.59;50.04
3464;BME280;3551;41.578;24.706;2023-12-20T12:09:57;90806.03;;;8.40;56.10
3464;BME280;3551;41.578;24.706;2023-12-20T12:12:24;90802.53;;;8.57;51.36
3464;BME280;3551;41.578;24.706;2023-12-20T12:14:53;90792.31;;;8.41;49.92
3464;BME280;3551;41.578;24.706;2023-12-20T12:17:19;90791.19;;;8.35;50.33
3464;BME280;3551;41.578;24.706;2023-12-20T12:19:46;90811.72;;;8.45;50.90
3464;BME280;3551;41.578;24.706;2023-12-20T12:22:15;90798.44;;;8.24;49.24
3464;BME280;3551;41.578;24.706;2023-12-20T12:24:47;90791.97;;;8.22;51.55
3464;BME280;3551;41.578;24.706;2023-12-20T12:27:16;90802.59;;;8.39;49.13
3464;BME280;3551;41.578;24.706;2023-12-20T12:30:00;90796.50;;;8.46;49.21
3464;BME280;3551;41.578;24.706;2023-12-20T12:32:30;90799.59;;;8.30;49.39
3464;BME280;3551;41.578;24.706;2023-12-20T12:34:59;90798.84;;;8.23;50.97
3464;BME280;3551;41.578;24.706;2023-12-20T12:37:37;90784.75;;;8.19;51.60
3464;BME280;3551;41.578;24.706;2023-12-20T12:40:06;90782.88;;;8.09;48.91
3464;BME280;3551;41.578;24.706;2023-12-20T12:42:34;90801.88;;;8.28;49.28
3464;BME280;3551;41.578;24.706;2023-12-20T12:45:01;90788.16;;;8.37;49.14
3464;BME280;3551;41.578;24.706;2023-12-20T12:47:28;90786.56;;;8.46;46.38
3464;BME280;3551;41.578;24.706;2023-12-20T12:49:55;90783.88;;;8.57;46.83
3464;BME280;3551;41.578;24.706;2023-12-20T12:52:22;90794.97;;;8.48;51.17
3464;BME280;3551;41.578;24.706;2023-12-20T12:54:50;90780.53;;;8.32;48.84
3464;BME280;3551;41.578;24.706;2023-12-20T12:57:21;90776.38;;;8.27;50.30
3464;BME280;3551;41.578;24.706;2023-12-20T12:59:51;90765.72;;;8.31;49.60
3464;BME280;3551;41.578;24.706;2023-12-20T13:02:18;90783.97;;;8.36;51.40
3464;BME280;3551;41.578;24.706;2023-12-20T13:04:50;90774.09;;;8.29;48.84
3464;BME280;3551;41.578;24.706;2023-12-20T13:07:18;90763.44;;;8.22;47.89
3464;BME280;3551;41.578;24.706;2023-12-20T13:09:48;90773.31;;;8.32;45.88
3464;BME280;3551;41.578;24.706;2023-12-20T13:12:19;90780.56;;;8.28;52.74
3464;BME280;3551;41.578;24.706;2023-12-20T13:14:50;90761.16;;;8.24;51.40
3464;BME280;3551;41.578;24.706;2023-12-20T13:17:17;90763.88;;;8.07;50.26
3464;BME280;3551;41.578;24.706;2023-12-20T13:19:47;90769.50;;;8.26;50.49
3464;BME280;3551;41.578;24.706;2023-12-20T13:22:18;90762.28;;;8.27;49.37
3464;BME280;3551;41.578;24.706;2023-12-20T13:24:47;90727.34;;;8.07;50.09
3464;BME280;3551;41.578;24.706;2023-12-20T13:27:14;90753.16;;;8.24;50.26
3464;BME280;3551;41.578;24.706;2023-12-20T13:29:43;90730.75;;;8.15;52.12
3464;BME280;3551;41.578;24.706;2023-12-20T13:32:09;90753.22;;;8.07;54.18
3464;BME280;3551;41.578;24.706;2023-12-20T13:34:36;90760.09;;;8.01;55.18
3464;BME280;3551;41.578;24.706;2023-12-20T13:37:04;90744.50;;;7.96;55.38
3464;BME280;3551;41.578;24.706;2023-12-20T13:39:30;90773.44;;;7.90;56.97
3464;BME280;3551;41.578;24.706;2023-12-20T13:41:58;90739.56;;;7.94;58.54
3464;BME280;3551;41.578;24.706;2023-12-20T13:44:26;90747.59;;;7.80;58.18
3464;BME280;3551;41.578;24.706;2023-12-20T13:46:54;90744.16;;;7.83;60.48
3464;BME280;3551;41.578;24.706;2023-12-20T13:49:21;90757.91;;;7.67;61.16
3464;BME280;3551;41.578;24.706;2023-12-20T13:51:51;90746.13;;;7.61;62.82
3464;BME280;3551;41.578;24.706;2023-12-20T13:54:20;90751.84;;;7.42;63.11
3464;BME280;3551;41.578;24.706;2023-12-20T13:56:47;90741.97;;;7.43;61.17
3464;BME280;3551;41.578;24.706;2023-12-20T13:59:14;90753.75;;;7.31;61.93
3464;BME280;3551;41.578;24.706;2023-12-20T14:01:41;90738.56;;;7.28;63.53
3464;BME280;3551;41.578;24.706;2023-12-20T14:04:10;90751.88;;;7.14;64.39
3464;BME280;3551;41.578;24.706;2023-12-20T14:06:37;90735.91;;;6.96;67.08
3464;BME280;3551;41.578;24.706;2023-12-20T14:09:04;90760.22;;;7.05;67.05
3464;BME280;3551;41.578;24.706;2023-12-20T14:11:31;90753.38;;;7.01;66.90
3464;BME280;3551;41.578;24.706;2023-12-20T14:14:03;90735.91;;;6.86;66.74
3464;BME280;3551;41.578;24.706;2023-12-20T14:16:47;90750.31;;;6.77;63.35
3464;BME280;3551;41.578;24.706;2023-12-20T14:19:20;90734.75;;;6.65;66.67
3464;BME280;3551;41.578;24.706;2023-12-20T14:21:50;90738.94;;;6.73;67.86
3464;BME280;3551;41.578;24.706;2023-12-20T14:24:20;90738.94;;;6.73;67.30
3464;BME280;3551;41.578;24.706;2023-12-20T14:27:11;90754.50;;;6.78;68.35
3464;BME280;3551;41.578;24.706;2023-12-20T14:29:41;90719.56;;;6.80;69.43
3464;BME280;3551;41.578;24.706;2023-12-20T14:32:11;90722.59;;;6.61;69.53
3464;BME280;3551;41.578;24.706;2023-12-20T14:34:42;90757.88;;;6.68;70.02
3464;BME280;3551;41.578;24.706;2023-12-20T14:37:14;90744.19;;;6.49;72.56
3464;BME280;3551;41.578;24.706;2023-12-20T14:39:48;90764.28;;;6.36;73.47
3464;BME280;3551;41.578;24.706;2023-12-20T14:42:34;90717.22;;;6.18;76.26
3464;BME280;3551;41.578;24.706;2023-12-20T14:51:31;90729.25;;;5.95;78.71
3464;BME280;3551;41.578;24.706;2023-12-20T16:31:33;90713.47;;;4.42;94.87
3464;BME280;3551;41.578;24.706;2023-12-20T16:34:00;90726.41;;;4.50;94.28
3464;BME280;3551;41.578;24.706;2023-12-20T16:36:48;90703.00;;;4.56;94.32
3464;BME280;3551;41.578;24.706;2023-12-20T16:39:15;90698.38;;;4.49;94.60
3464;BME280;3551;41.578;24.706;2023-12-20T16:41:42;90694.13;;;4.38;94.89
3464;BME280;3551;41.578;24.706;2023-12-20T16:44:09;90695.69;;;4.42;94.24
3464;BME280;3551;41.578;24.706;2023-12-20T16:46:37;90700.69;;;4.51;93.95
3464;BME280;3551;41.578;24.706;2023-12-20T16:49:04;90687.69;;;4.35;94.75
3464;BME280;3551;41.578;24.706;2023-12-20T16:51:31;90703.28;;;4.47;95.37
3464;BME280;3551;41.578;24.706;2023-12-20T16:53:59;90694.09;;;4.31;96.00
3464;BME280;3551;41.578;24.706;2023-12-20T16:56:26;90691.16;;;4.43;95.17
3464;BME280;3551;41.578;24.706;2023-12-20T16:58:53;90693.75;;;4.36;94.90
3464;BME280;3551;41.578;24.706;2023-12-20T17:01:19;90699.75;;;4.33;95.46
3464;BME280;3551;41.578;24.706;2023-12-20T17:03:49;90729.59;;;4.30;95.86
3464;BME280;3551;41.578;24.706;2023-12-20T17:06:16;90720.84;;;4.22;96.07
3464;BME280;3551;41.578;24.706;2023-12-20T17:08:43;90704.88;;;4.15;95.97
3464;BME280;3551;41.578;24.706;2023-12-20T17:11:10;90705.19;;;4.07;96.71
3464;BME280;3551;41.578;24.706;2023-12-20T17:13:37;90690.78;;;4.04;96.64
3464;BME280;3551;41.578;24.706;2023-12-20T17:16:04;90699.53;;;4.08;95.11
3464;BME280;3551;41.578;24.706;2023-12-20T17:18:32;90715.50;;;4.19;95.88
3464;BME280;3551;41.578;24.706;2023-12-20T17:21:00;90706.41;;;4.16;96.74
3464;BME280;3551;41.578;24.706;2023-12-20T17:23:28;90732.69;;;3.98;96.87
3464;BME280;3551;41.578;24.706;2023-12-20T17:25:55;90701.47;;;4.11;97.07
3464;BME280;3551;41.578;24.706;2023-12-20T17:28:22;90723.03;;;3.80;99.44
3464;BME280;3551;41.578;24.706;2023-12-20T17:30:49;90708.44;;;3.93;98.94
3464;BME280;3551;41.578;24.706;2023-12-20T17:33:16;90711.00;;;3.86;99.60
3464;BME280;3551;41.578;24.706;2023-12-20T17:35:43;90704.59;;;3.87;99.80
3464;BME280;3551;41.578;24.706;2023-12-20T17:38:11;90704.66;;;3.90;100.00
3464;BME280;3551;41.578;24.706;2023-12-20T17:40:38;90704.13;;;3.78;100.00
3464;BME280;3551;41.578;24.706;2023-12-20T17:43:06;90707.59;;;3.85;100.00
3464;BME280;3551;41.578;24.706;2023-12-20T17:45:35;90726.19;;;3.92;100.00
3464;BME280;3551;41.578;24.706;2023-12-20T17:48:02;90696.28;;;3.85;100.00
3464;BME280;3551;41.578;24.706;2023-12-20T17:50:29;90695.41;;;3.77;100.00
3464;BME280;3551;41.578;24.706;2023-12-20T17:52:56;90690.91;;;3.78;100.00
3464;BME280;3551;41.578;24.706;2023-12-20T17:55:26;90681.81;;;3.75;100.00
3464;BME280;3551;41.578;24.706;2023-12-20T17:57:52;90703.88;;;3.57;100.00
3464;BME280;3551;41.578;24.706;2023-12-20T18:00:22;90694.88;;;3.61;100.00
3464;BME280;3551;41.578;24.706;2023-12-20T18:02:50;90692.63;;;3.63;100.00
3464;BME280;3551;41.578;24.706;2023-12-20T18:05:21;90702.44;;;3.63;100.00
3464;BME280;3551;41.578;24.706;2023-12-20T18:07:49;90698.69;;;3.64;100.00
3464;BME280;3551;41.578;24.706;2023-12-20T18:10:16;90704.72;;;3.64;100.00
3464;BME280;3551;41.578;24.706;2023-12-20T18:12:44;90698.56;;;3.53;100.00
3464;BME280;3551;41.578;24.706;2023-12-20T18:15:11;90682.16;;;3.40;100.00
3464;BME280;3551;41.578;24.706;2023-12-20T18:17:38;90695.53;;;3.55;100.00
3464;BME280;3551;41.578;24.706;2023-12-20T18:20:06;90700.88;;;3.58;100.00
3464;BME280;3551;41.578;24.706;2023-12-20T18:22:33;90702.72;;;3.54;100.00
3464;BME280;3551;41.578;24.706;2023-12-20T18:24:59;90697.03;;;3.52;100.00
3464;BME280;3551;41.578;24.706;2023-12-20T18:27:26;90690.16;;;3.44;100.00
3464;BME280;3551;41.578;24.706;2023-12-20T18:29:54;90683.66;;;3.41;100.00
3464;BME280;3551;41.578;24.706;2023-12-20T18:32:21;90686.28;;;3.38;100.00